createdAt,value
2019-01-18T00:01:56.709Z,5.00
2019-01-18T00:04:45.517Z,4.99
2019-01-18T00:07:34.317Z,4.47
2019-01-18T00:10:23.131Z,4.61
2019-01-18T00:13:11.952Z,4.69
2019-01-18T00:16:00.743Z,4.59
2019-01-18T00:18:49.553Z,3.17
2019-01-18T00:21:38.349Z,4.13
2019-01-18T00:27:21.276Z,4.51
2019-01-18T00:30:31.374Z,4.46
2019-01-18T00:36:34.831Z,3.50
2019-01-18T00:39:23.631Z,4.47
2019-01-18T00:42:12.424Z,4.52
2019-01-18T00:45:01.228Z,4.04
2019-01-18T00:47:42.613Z,4.61
2019-01-18T00:50:31.426Z,3.62
2019-01-18T00:53:20.233Z,4.46
2019-01-18T00:56:09.112Z,4.58
2019-01-18T00:58:57.940Z,4.48
2019-01-18T01:01:46.730Z,4.02
2019-01-18T01:04:35.538Z,3.01
2019-01-18T01:07:17.324Z,3.65
2019-01-18T01:10:27.044Z,2.30
2019-01-18T01:13:15.901Z,4.15
2019-01-18T01:18:58.943Z,4.18
2019-01-18T01:21:48.813Z,4.22
2019-01-18T01:24:37.661Z,2.49
2019-01-18T01:27:26.409Z,2.62
2019-01-18T01:30:36.129Z,4.13
2019-01-18T01:33:24.919Z,3.07
2019-01-18T01:36:13.741Z,3.87
2019-01-18T01:42:11.927Z,3.88
2019-01-18T01:45:00.789Z,4.24
2019-01-18T01:47:40.529Z,4.15
2019-01-18T01:50:29.307Z,4.26
2019-01-18T01:53:18.139Z,4.50
2019-01-18T01:56:06.940Z,4.52
2019-01-18T01:58:55.753Z,4.65
2019-01-18T02:02:03.649Z,4.26
2019-01-18T02:04:52.460Z,4.03
2019-01-18T02:07:41.330Z,4.06
2019-01-18T02:10:30.135Z,3.72
2019-01-18T02:13:18.958Z,3.65
2019-01-18T02:16:07.902Z,3.85
2019-01-18T02:18:56.735Z,3.33
2019-01-18T02:21:45.698Z,3.74
2019-01-18T02:24:34.663Z,3.81
2019-01-18T02:27:23.500Z,4.20
2019-01-18T02:30:31.703Z,4.38
2019-01-18T02:33:20.847Z,4.01
2019-01-18T02:36:09.729Z,3.98
2019-01-18T02:38:58.536Z,4.04
2019-01-18T02:41:47.361Z,4.07
2019-01-18T02:44:36.138Z,3.75
2019-01-18T02:47:24.951Z,4.09
2019-01-18T02:50:08.140Z,3.90
2019-01-18T02:52:56.942Z,3.92
2019-01-18T02:58:33.604Z,4.35
2019-01-18T03:01:22.385Z,3.51
2019-01-18T03:04:11.206Z,3.90
2019-01-18T03:09:47.869Z,2.87
2019-01-18T03:12:36.683Z,4.29
2019-01-18T03:15:25.495Z,3.86
2019-01-18T03:18:14.296Z,3.84
2019-01-18T03:21:03.081Z,4.01
2019-01-18T03:23:51.962Z,3.35
2019-01-18T03:26:40.755Z,4.02
2019-01-18T03:29:29.576Z,4.01
2019-01-18T03:32:18.370Z,3.93
2019-01-18T03:35:28.106Z,3.88
2019-01-18T03:38:16.985Z,2.31
2019-01-18T03:46:54.873Z,3.91
2019-01-18T03:49:36.312Z,3.97
2019-01-18T03:52:25.132Z,4.14
2019-01-18T03:55:14.167Z,2.84
2019-01-18T03:58:02.995Z,2.83
2019-01-18T04:00:51.834Z,4.19
2019-01-18T04:03:40.624Z,2.51
2019-01-18T04:06:22.377Z,4.46
2019-01-18T04:09:11.173Z,3.71
2019-01-18T04:11:59.978Z,4.58
2019-01-18T04:14:48.775Z,4.28
2019-01-18T04:17:37.590Z,4.15
2019-01-18T04:20:26.458Z,3.29
2019-01-18T04:23:15.247Z,3.20
2019-01-18T04:26:04.054Z,3.15
2019-01-18T04:28:52.918Z,2.60
2019-01-18T04:31:41.710Z,3.29
2019-01-18T04:34:30.524Z,3.48
2019-01-18T04:37:19.341Z,3.78
2019-01-18T04:40:27.954Z,3.92
2019-01-18T04:43:16.775Z,3.12
2019-01-18T04:46:24.684Z,2.72
2019-01-18T04:49:13.463Z,4.41
2019-01-18T04:51:55.158Z,4.23
2019-01-18T04:54:43.959Z,3.44
2019-01-18T04:57:32.764Z,3.93
2019-01-18T05:00:42.455Z,4.01
2019-01-18T05:03:31.267Z,3.78
2019-01-18T05:06:20.096Z,3.33
2019-01-18T05:09:08.895Z,3.89
2019-01-18T05:11:57.699Z,3.92
2019-01-18T05:17:55.944Z,3.90
2019-01-18T05:20:44.737Z,3.82
2019-01-18T05:23:33.541Z,3.14
2019-01-18T05:26:22.668Z,1.97
2019-01-18T05:29:11.467Z,1.71
2019-01-18T05:32:00.281Z,3.42
2019-01-18T05:34:49.074Z,3.47
2019-01-18T05:37:37.882Z,3.46
2019-01-18T05:40:26.672Z,3.36
2019-01-18T05:43:15.470Z,1.83
2019-01-18T05:46:04.414Z,2.30
2019-01-18T05:48:53.221Z,3.21
2019-01-18T05:51:34.682Z,3.08
2019-01-18T05:54:23.516Z,3.00
2019-01-18T05:57:12.318Z,1.07
2019-01-18T06:00:01.104Z,2.78
2019-01-18T06:02:49.919Z,2.72
2019-01-18T06:08:44.546Z,2.57
2019-01-18T06:11:33.361Z,2.16
2019-01-18T06:14:22.174Z,2.12
2019-01-18T06:17:10.979Z,2.11
2019-01-18T06:20:00.232Z,0.66
2019-01-18T06:22:50.688Z,1.86
2019-01-18T06:25:39.501Z,1.05
2019-01-18T06:28:28.319Z,-0.26
2019-01-18T06:31:17.118Z,1.57
2019-01-18T06:33:46.598Z,1.66
2019-01-18T06:36:35.739Z,1.67
2019-01-18T06:39:24.532Z,1.66
2019-01-18T06:42:13.357Z,1.59
2019-01-18T06:45:02.169Z,1.58
2019-01-18T06:47:51.040Z,0.82
2019-01-18T06:50:39.868Z,1.43
2019-01-18T06:53:21.569Z,1.49
2019-01-18T06:56:10.373Z,-0.06
2019-01-18T06:58:59.200Z,1.28
2019-01-18T07:01:48.009Z,0.46
2019-01-18T07:04:40.806Z,1.18
2019-01-18T07:07:27.356Z,1.13
2019-01-18T07:10:37.068Z,1.06
2019-01-18T07:13:25.877Z,0.88
2019-01-18T07:16:14.692Z,1.02
2019-01-18T07:19:03.521Z,0.95
2019-01-18T07:21:52.480Z,0.97
2019-01-18T07:24:41.335Z,0.64
2019-01-18T07:27:30.139Z,0.39
2019-01-18T07:30:39.885Z,0.47
2019-01-18T07:33:28.692Z,0.06
2019-01-18T07:36:17.545Z,0.60
2019-01-18T07:39:27.265Z,0.39
2019-01-18T07:42:16.050Z,0.35
2019-01-18T07:45:25.770Z,0.23
2019-01-18T07:48:14.570Z,0.15
2019-01-18T07:51:03.402Z,-0.66
2019-01-18T07:53:44.757Z,0.48
2019-01-18T07:56:33.573Z,0.62
2019-01-18T07:59:22.367Z,0.60
2019-01-18T08:02:11.194Z,0.72
2019-01-18T08:04:59.981Z,0.78
2019-01-18T08:07:48.868Z,0.75
2019-01-18T08:10:37.663Z,0.80
2019-01-18T08:13:26.486Z,0.80
2019-01-18T08:16:15.284Z,0.87
2019-01-18T08:19:04.108Z,-0.82
2019-01-18T08:21:52.920Z,1.10
2019-01-18T08:24:41.730Z,1.03
2019-01-18T08:27:30.525Z,1.22
2019-01-18T08:30:40.275Z,1.23
2019-01-18T08:33:29.066Z,1.37
2019-01-18T08:36:17.958Z,1.40
2019-01-18T08:42:02.738Z,1.40
2019-01-18T08:44:51.534Z,1.38
2019-01-18T08:47:40.354Z,1.47
2019-01-18T08:50:29.151Z,1.30
2019-01-18T08:53:10.958Z,1.42
2019-01-18T08:55:59.817Z,1.49
2019-01-18T08:58:48.653Z,0.09
2019-01-18T09:01:37.448Z,0.89
2019-01-18T09:04:26.274Z,0.78
2019-01-18T09:07:15.082Z,-0.46
2019-01-18T09:13:18.951Z,1.88
2019-01-18T09:16:07.746Z,0.66
2019-01-18T09:18:56.618Z,2.37
2019-01-18T09:21:45.365Z,1.23
2019-01-18T09:24:34.189Z,2.79
2019-01-18T09:27:22.994Z,2.77
2019-01-18T09:33:28.471Z,2.71
2019-01-18T09:36:17.366Z,3.05
2019-01-18T09:39:27.083Z,1.86
2019-01-18T09:42:15.891Z,3.27
2019-01-18T09:45:25.596Z,3.39
2019-01-18T09:48:14.414Z,3.45
2019-01-18T09:51:03.275Z,3.43
2019-01-18T09:53:45.179Z,3.39
2019-01-18T09:56:33.995Z,2.62
2019-01-18T09:59:22.787Z,3.43
2019-01-18T10:02:11.583Z,2.56
2019-01-18T10:05:00.405Z,2.59
2019-01-18T10:07:49.197Z,2.64
2019-01-18T10:10:37.998Z,2.65
2019-01-18T10:13:26.795Z,2.98
2019-01-18T10:16:34.707Z,3.11
2019-01-18T10:19:23.493Z,3.38
2019-01-18T10:22:31.315Z,2.88
2019-01-18T10:25:20.281Z,3.85
2019-01-18T10:28:09.087Z,3.72
2019-01-18T10:30:57.890Z,3.80
2019-01-18T10:33:46.708Z,3.91
2019-01-18T10:36:35.489Z,3.61
2019-01-18T10:39:24.317Z,3.39
2019-01-18T10:42:13.126Z,3.75
2019-01-18T10:45:01.935Z,3.88
2019-01-18T10:51:00.396Z,3.12
2019-01-18T10:53:49.187Z,4.77
2019-01-18T10:56:30.857Z,5.00
2019-01-18T10:59:19.662Z,3.90
2019-01-18T11:02:08.449Z,5.26
2019-01-18T11:04:57.270Z,4.42
2019-01-18T11:07:46.110Z,4.78
2019-01-18T11:10:34.918Z,4.43
2019-01-18T11:13:23.711Z,5.19
2019-01-18T11:16:12.520Z,5.67
2019-01-18T11:19:01.314Z,4.80
2019-01-18T11:24:45.742Z,6.69
2019-01-18T11:27:34.534Z,7.13
2019-01-18T11:30:23.342Z,7.44
2019-01-18T11:33:12.129Z,7.54
2019-01-18T11:36:00.942Z,8.03
2019-01-18T11:38:49.734Z,8.25
2019-01-18T11:41:38.539Z,8.43
2019-01-18T11:44:27.332Z,8.67
2019-01-18T11:47:16.147Z,7.71
2019-01-18T11:50:25.948Z,9.04
2019-01-18T11:53:14.754Z,9.31
2019-01-18T11:55:56.352Z,9.04
2019-01-18T11:58:45.159Z,9.23
2019-01-18T12:01:33.952Z,9.31
2019-01-18T12:04:22.760Z,9.61
2019-01-18T12:07:11.565Z,9.85
2019-01-18T12:10:00.384Z,9.90
2019-01-18T12:12:49.185Z,9.98
2019-01-18T12:15:38.007Z,9.82
2019-01-18T12:18:26.804Z,10.26
2019-01-18T12:21:15.672Z,10.34
2019-01-18T12:24:04.661Z,10.42
2019-01-18T12:26:53.476Z,10.77
2019-01-18T12:29:42.259Z,10.69
2019-01-18T12:32:31.154Z,10.78
2019-01-18T12:35:19.962Z,10.87
2019-01-18T12:38:08.759Z,9.90
2019-01-18T12:40:57.613Z,10.53
2019-01-18T12:43:46.366Z,10.44
2019-01-18T12:46:35.176Z,10.31
2019-01-18T12:49:23.997Z,8.47
2019-01-18T12:52:12.802Z,9.65
2019-01-18T12:54:58.970Z,9.70
2019-01-18T12:57:47.785Z,9.96
2019-01-18T13:00:36.636Z,10.38
2019-01-18T13:03:25.454Z,10.91
2019-01-18T13:06:14.316Z,11.05
2019-01-18T13:11:58.996Z,11.27
2019-01-18T13:14:47.784Z,11.31
2019-01-18T13:17:36.606Z,11.12
2019-01-18T13:20:25.392Z,11.19
2019-01-18T13:23:14.216Z,11.16
2019-01-18T13:26:03.073Z,11.71
2019-01-18T13:28:51.905Z,12.13
2019-01-18T13:31:40.687Z,12.55
2019-01-18T13:34:29.567Z,11.35
2019-01-18T13:37:18.365Z,12.86
2019-01-18T13:40:28.083Z,12.83
2019-01-18T13:43:16.898Z,12.73
2019-01-18T13:46:05.710Z,12.58
2019-01-18T13:48:54.528Z,11.33
2019-01-18T13:51:46.253Z,12.48
2019-01-18T13:54:33.852Z,12.05
2019-01-18T13:57:22.662Z,12.36
2019-01-18T14:00:32.369Z,11.13
2019-01-18T14:03:21.158Z,12.38
2019-01-18T14:06:09.944Z,11.46
2019-01-18T14:08:58.765Z,12.94
2019-01-18T14:11:47.561Z,13.20
2019-01-18T14:14:36.444Z,13.19
2019-01-18T14:17:25.241Z,13.10
2019-01-18T14:20:33.635Z,12.70
2019-01-18T14:23:22.425Z,13.19
2019-01-18T14:26:11.279Z,13.50
2019-01-18T14:29:00.472Z,12.91
2019-01-18T14:31:49.324Z,12.61
2019-01-18T14:34:38.190Z,13.36
2019-01-18T14:37:27.002Z,12.63
2019-01-18T14:40:37.026Z,12.93
2019-01-18T14:43:25.796Z,13.05
2019-01-18T14:46:14.794Z,13.01
2019-01-18T14:52:33.776Z,12.13
2019-01-18T14:55:15.278Z,11.95
2019-01-18T14:58:25.004Z,11.46
2019-01-18T15:01:13.810Z,11.48
2019-01-18T15:04:02.620Z,11.52
2019-01-18T15:06:52.370Z,9.91
2019-01-18T15:09:41.180Z,10.75
2019-01-18T15:12:29.992Z,9.39
2019-01-18T15:15:18.786Z,9.62
2019-01-18T15:18:07.660Z,8.58
2019-01-18T15:20:56.483Z,8.19
2019-01-18T15:23:45.277Z,5.61
2019-01-18T15:26:34.084Z,6.85
2019-01-18T15:29:22.911Z,5.35
2019-01-18T15:31:52.358Z,5.63
2019-01-18T15:34:41.159Z,5.17
2019-01-18T15:37:29.957Z,5.40
2019-01-18T15:46:31.089Z,5.52
2019-01-18T15:49:19.883Z,5.37
2019-01-18T15:52:08.691Z,3.65
2019-01-18T15:54:57.503Z,5.16
2019-01-18T15:57:39.211Z,5.14
2019-01-18T16:00:47.328Z,5.06
2019-01-18T16:03:36.203Z,4.97
2019-01-18T16:06:24.998Z,4.79
2019-01-18T16:09:13.817Z,4.55
2019-01-18T16:12:02.626Z,4.56
2019-01-18T16:15:10.450Z,2.65
2019-01-18T16:17:59.270Z,4.25
2019-01-18T16:20:48.060Z,4.03
2019-01-18T16:23:36.873Z,3.98
2019-01-18T16:26:25.657Z,3.93
2019-01-18T16:29:14.528Z,3.95
2019-01-18T16:32:03.326Z,3.87
2019-01-18T16:34:52.184Z,3.70
2019-01-18T16:37:41.140Z,3.47
2019-01-18T16:40:50.857Z,1.73
2019-01-18T16:43:33.084Z,3.29
2019-01-18T16:46:21.886Z,1.54
2019-01-18T16:49:10.810Z,3.19
2019-01-18T16:51:59.620Z,3.12
2019-01-18T16:54:48.430Z,3.03
2019-01-18T16:57:37.222Z,1.11
2019-01-18T17:00:46.835Z,2.63
2019-01-18T17:03:35.642Z,2.68
2019-01-18T17:06:24.476Z,2.74
2019-01-18T17:09:13.273Z,2.65
2019-01-18T17:12:02.117Z,2.51
2019-01-18T17:17:45.265Z,2.32
2019-01-18T17:20:53.389Z,0.80
2019-01-18T17:23:42.288Z,2.22
2019-01-18T17:26:31.087Z,2.18
2019-01-18T17:29:19.906Z,0.34
2019-01-18T17:32:08.783Z,1.84
2019-01-18T17:34:57.600Z,1.91
2019-01-18T17:38:07.299Z,1.77
2019-01-18T17:44:33.419Z,1.48
2019-01-18T17:47:43.119Z,1.43
2019-01-18T17:51:10.635Z,1.27
2019-01-18T17:54:20.363Z,1.26
2019-01-18T17:57:30.071Z,1.19
2019-01-18T18:00:39.956Z,-0.27
2019-01-18T18:04:07.457Z,1.14
2019-01-18T18:07:35.027Z,1.09
2019-01-18T18:11:02.917Z,1.12
2019-01-18T18:14:14.314Z,0.97
2019-01-18T18:17:24.091Z,1.00
2019-01-18T18:20:51.587Z,0.96
2019-01-18T18:24:19.094Z,0.95
2019-01-18T18:27:46.917Z,0.88
2019-01-18T18:30:56.646Z,0.68
2019-01-18T18:34:24.184Z,-1.12
2019-01-18T18:37:33.961Z,0.53
2019-01-18T18:41:01.455Z,0.53
2019-01-18T18:44:29.218Z,0.46
2019-01-18T18:47:15.910Z,-0.23
2019-01-18T18:50:43.427Z,-1.49
2019-01-18T18:53:53.207Z,0.07
2019-01-18T18:57:02.949Z,0.18
2019-01-18T19:00:12.676Z,0.00
2019-01-18T19:03:41.209Z,-0.02
2019-01-18T19:07:08.824Z,-0.03
2019-01-18T19:10:18.523Z,-0.02
2019-01-18T19:13:28.303Z,-0.13
2019-01-18T19:16:38.113Z,-0.08
2019-01-18T19:20:05.754Z,-1.12
2019-01-18T19:23:15.577Z,-0.27
2019-01-18T19:26:25.505Z,-0.22
2019-01-18T19:29:35.759Z,-0.81
2019-01-18T19:33:03.720Z,-0.30
2019-01-18T19:36:28.089Z,-0.35
2019-01-18T19:39:43.852Z,-0.47
2019-01-18T19:43:11.783Z,-0.61
2019-01-18T19:46:39.944Z,-0.55
2019-01-18T19:50:08.133Z,-2.49
2019-01-18T19:57:05.141Z,-0.76
2019-01-18T20:03:45.937Z,-0.89
2019-01-18T20:07:01.783Z,-0.85
2019-01-18T20:10:30.066Z,-2.28
2019-01-18T20:13:58.159Z,-0.89
2019-01-18T20:17:26.470Z,-0.83
2019-01-18T20:20:55.246Z,-0.81
2019-01-18T20:24:23.561Z,-2.40
2019-01-18T20:27:34.030Z,-0.78
2019-01-18T20:30:56.240Z,-0.86
2019-01-18T20:34:18.322Z,-1.76
2019-01-18T20:37:44.309Z,-2.88
2019-01-18T20:41:12.341Z,-1.76
2019-01-18T20:44:21.701Z,-1.12
2019-01-18T20:47:50.105Z,-1.38
2019-01-18T20:51:00.697Z,-1.10
2019-01-18T20:54:25.241Z,-1.21
2019-01-18T20:57:23.360Z,-1.77
2019-01-18T21:00:45.686Z,-3.09
2019-01-18T21:04:00.108Z,-1.29
2019-01-18T21:07:16.569Z,-1.20
2019-01-18T21:10:45.138Z,-1.29
2019-01-18T21:14:13.482Z,-1.29
2019-01-18T21:17:35.991Z,-1.23
2019-01-18T21:24:24.337Z,-2.89
2019-01-18T21:27:52.468Z,-1.06
2019-01-18T21:31:20.833Z,-1.18
2019-01-18T21:41:06.016Z,-1.15
2019-01-18T21:48:10.892Z,-2.58
2019-01-18T21:51:20.741Z,-2.93
2019-01-18T21:54:48.573Z,-1.00
2019-01-18T21:57:58.306Z,-2.61
2019-01-18T22:01:08.043Z,-1.00
2019-01-18T22:04:40.359Z,-1.07
2019-01-18T22:07:47.065Z,-1.00
2019-01-18T22:10:56.845Z,-0.99
2019-01-18T22:14:06.618Z,-0.94
2019-01-18T22:17:16.416Z,-0.88
2019-01-18T22:20:44.155Z,-1.98
2019-01-18T22:23:54.146Z,-1.14
2019-01-18T22:27:03.994Z,-1.13
2019-01-18T22:30:13.795Z,-1.29
2019-01-18T22:33:23.517Z,-1.20
2019-01-18T22:36:33.577Z,-2.99
2019-01-18T22:39:43.280Z,-1.15
2019-01-18T22:42:53.001Z,-1.12
2019-01-18T22:45:36.833Z,-1.30
2019-01-18T22:48:46.562Z,-3.09
2019-01-18T22:51:56.395Z,-2.50
2019-01-18T22:55:06.184Z,-1.26
2019-01-18T22:58:15.958Z,-1.26
2019-01-18T23:01:43.531Z,-2.83
2019-01-18T23:04:55.634Z,-1.29
2019-01-18T23:08:22.658Z,-1.41
2019-01-18T23:11:32.415Z,-1.30
2019-01-18T23:14:59.995Z,-1.53
2019-01-18T23:18:09.718Z,-1.59
2019-01-18T23:21:37.221Z,-1.47
2019-01-18T23:24:46.954Z,-3.27
2019-01-18T23:27:56.663Z,-1.51
2019-01-18T23:31:06.434Z,-1.64
2019-01-18T23:34:16.155Z,-1.74
2019-01-18T23:37:25.938Z,-1.64
2019-01-18T23:40:35.688Z,-1.62
2019-01-18T23:43:45.506Z,-1.82
2019-01-18T23:47:13.962Z,-1.99
2019-01-18T23:50:23.813Z,-1.85
2019-01-18T23:57:21.679Z,-1.84
